Time;durP1;ratioP1;P1;durP2;ratioP2;P2;SDS_P1;SDS_P2;PMS_P1;PMS_P2;Temp;Humidity;BMP_temperature;BMP_pressure;BME280_temperature;BME280_humidity;BME280_pressure;Samples;Min_cycle;Max_cycle;Signal;HPM_P1;HPM_P2
2023/10/11 00:00:37;;;;;;;;;;;;;;;;;;5032936;28;4986;-56
2023/10/11 00:03:32;;;;;;;;;;;;;;;;;;5025697;28;5329;-56
2023/10/11 00:05:55;;;;;;;;;;;;;;;;;;5020289;28;5009;-57
2023/10/11 00:08:25;;;;;;;;;;;;;;;;;;5017096;28;5071;-57
2023/10/11 00:10:54;;;;;;;;;;;;;;;;;;5031854;28;1152;-56
2023/10/11 00:13:23;;;;;;;;;;;;;;;;;;5031389;28;4460;-56
2023/10/11 00:15:49;;;;;;;;;;;;;;;;;;5036415;28;4860;-57
2023/10/11 00:18:18;;;;;;;;;;;;;;;;;;5031373;28;5381;-57
2023/10/11 00:20:50;;;;;;;;;;;;;;;;;;5036481;28;5530;-59
2023/10/11 00:23:16;;;;;;;;;;;;;;;;;;5015250;28;1973;-56
2023/10/11 00:25:42;;;;;;;;;;;;;;;;;;5034017;28;4851;-57
2023/10/11 00:28:08;;;;;;;;;;;;;;;;;;5022762;28;4983;-56
2023/10/11 00:30:38;;;;;;;;;;;;;;;;;;5036726;28;5434;-57
2023/10/11 00:33:04;;;;;;;;;;;;;;;;;;5028238;28;4636;-57
2023/10/11 00:35:32;;;;;;;;;;;;;;;;;;5036864;28;5088;-57
2023/10/11 00:37:59;;;;;;;;;;;;;;;;;;5029843;28;1426;-56
2023/10/11 00:40:25;;;;;;;;;;;;;;;;;;5025926;28;4885;-57
2023/10/11 00:42:57;;;;;;;;;;;;;;;;;;5051846;28;4938;-56
2023/10/11 00:45:23;;;;;;;;;;;;;;;;;;5018604;28;5029;-56
2023/10/11 00:47:52;;;;;;;;;;;;;;;;;;5025753;28;4865;-56
2023/10/11 00:50:18;;;;;;;;;;;;;;;;;;5004553;28;4526;-57
2023/10/11 00:52:45;;;;;;;;;;;;;;;;;;5028178;28;1086;-56
2023/10/11 00:55:17;;;;;;;;;;;;;;;;;;5027440;28;4640;-57
2023/10/11 00:57:43;;;;;;;;;;;;;;;;;;5031980;28;4951;-57
2023/10/11 01:00:13;;;;;;;;;;;;;;;;;;5025617;28;5086;-57
2023/10/11 01:02:38;;;;;;;;;;;;;;;;;;5025826;28;4459;-57
2023/10/11 01:05:06;;;;;;;;;;;;;;;;;;5021458;28;3312;-57
2023/10/11 01:07:31;;;;;;;;;;;;;;;;;;5030754;28;4998;-56
2023/10/11 01:09:57;;;;;;;;;;;;;;;;;;5022894;28;4633;-57
2023/10/11 01:12:22;;;;;;;;;;;;;;;;;;5031685;28;4604;-57
2023/10/11 01:15:33;;;;;;;;;;;;;;;;;;5032092;28;5015;-58
2023/10/11 01:17:33;;;;;;;;;;;;;;;;;;5026566;28;5042;-57
2023/10/11 01:19:59;;;;;;;;;;;;;;;;;;5034541;28;1266;-57
2023/10/11 01:22:26;;;;;;;;;;;;;;;;;;5032716;28;5287;-57
2023/10/11 01:24:53;;;;;;;;;;;;;;;;;;5019437;28;4651;-56
2023/10/11 01:27:19;;;;;;;;;;;;;;;;;;5024535;28;5023;-57
2023/10/11 01:29:44;;;;;;;;;;;;;;;;;;5026033;28;5107;-57
2023/10/11 01:32:10;;;;;;;;;;;;;;;;;;5024823;28;3299;-57
2023/10/11 01:34:35;;;;;;;;;;;;;;;;;;5017081;28;4901;-57
2023/10/11 01:37:01;;;;;;;;;;;;;;;;;;5035070;28;4408;-56
2023/10/11 01:39:26;;;;;;;;;;;;;;;;;;5024352;28;4887;-57
2023/10/11 01:41:58;;;;;;;;;;;;;;;;;;5032438;28;5040;-57
2023/10/11 01:44:23;;;;;;;;;;;;;;;;;;5018549;28;5217;-57
2023/10/11 01:46:48;;;;;;;;;;;;;;;;;;5038914;28;3111;-56
2023/10/11 01:49:14;;;;;;;;;;;;;;;;;;5020127;28;4569;-58
2023/10/11 01:51:40;;;;;;;;;;;;;;;;;;5019634;28;5067;-57
2023/10/11 01:54:11;;;;;;;;;;;;;;;;;;5023411;28;5050;-57
2023/10/11 01:56:38;;;;;;;;;;;;;;;;;;5018185;28;4908;-57
2023/10/11 01:59:04;;;;;;;;;;;;;;;;;;5025272;28;3253;-57
2023/10/11 02:01:30;;;;;;;;;;;;;;;;;;5011972;28;5030;-55
2023/10/11 02:03:58;;;;;;;;;;;;;;;;;;5021172;28;5083;-57
2023/10/11 02:06:26;;;;;;;;;;;;;;;;;;5014049;28;5278;-57
2023/10/11 02:08:51;;;;;;;;;;;;;;;;;;5028517;28;5245;-57
2023/10/11 02:11:23;;;;;;;;;;;;;;;;;;5018295;28;5701;-56
2023/10/11 02:13:49;;;;;;;;;;;;;;;;;;5021070;28;2503;-57
2023/10/11 02:16:15;;;;;;;;;;;;;;;;;;5025619;28;4993;-57
2023/10/11 02:18:41;;;;;;;;;;;;;;;;;;5002984;28;5140;-57
2023/10/11 02:21:06;;;;;;;;;;;;;;;;;;5015285;28;4985;-58
2023/10/11 02:23:39;;;;;;;;;;;;;;;;;;5025981;28;4526;-57
2023/10/11 02:26:05;;;;;;;;;;;;;;;;;;5025055;28;3130;-57
2023/10/11 02:28:30;;;;;;;;;;;;;;;;;;5015487;28;5151;-58
2023/10/11 02:30:56;;;;;;;;;;;;;;;;;;5017778;28;5162;-57
2023/10/11 02:33:22;;;;;;;;;;;;;;;;;;5033195;28;5182;-56
2023/10/11 02:35:55;;;;;;;;;;;;;;;;;;5030838;28;5039;-56
2023/10/11 02:38:23;;;;;;;;;;;;;;;;;;5030788;28;4918;-57
2023/10/11 02:40:57;;;;;;;;;;;;;;;;;;5031587;28;1388;-57
2023/10/11 02:43:23;;;;;;;;;;;;;;;;;;5019565;28;4761;-57
2023/10/11 02:45:50;;;;;;;;;;;;;;;;;;5033391;28;4492;-56
2023/10/11 02:48:19;;;;;;;;;;;;;;;;;;5026820;28;4667;-57
2023/10/11 02:50:46;;;;;;;;;;;;;;;;;;5023041;28;5116;-58
2023/10/11 02:53:23;;;;;;;;;;;;;;;;;;5010069;28;3192;-57
2023/10/11 02:55:58;;;;;;;;;;;;;;;;;;5028105;28;4719;-57
2023/10/11 02:58:29;;;;;;;;;;;;;;;;;;5012739;28;4924;-57
2023/10/11 03:00:56;;;;;;;;;;;;;;;;;;5023217;28;5203;-56
2023/10/11 03:03:22;;;;;;;;;;;;;;;;;;5008030;28;5071;-57
2023/10/11 03:05:48;;;;;;;;;;;;;;;;;;5046811;28;5042;-57
2023/10/11 03:08:14;;;;;;;;;;;;;;;;;;5039702;28;3385;-57
2023/10/11 03:10:45;;;;;;;;;;;;;;;;;;5022852;28;4880;-57
2023/10/11 03:13:18;;;;;;;;;;;;;;;;;;5036055;28;5061;-57
2023/10/11 03:15:46;;;;;;;;;;;;;;;;;;5028962;28;4963;-57
2023/10/11 03:18:12;;;;;;;;;;;;;;;;;;5023110;28;5027;-57
2023/10/11 03:20:37;;;;;;;;;;;;;;;;;;5033194;28;4937;-57
2023/10/11 03:23:10;;;;;;;;;;;;;;;;;;5042416;28;3347;-57
2023/10/11 03:25:37;;;;;;;;;;;;;;;;;;5018311;28;4832;-57
2023/10/11 03:28:03;;;;;;;;;;;;;;;;;;5031966;28;5250;-58
2023/10/11 03:30:34;;;;;;;;;;;;;;;;;;5024313;28;5050;-56
2023/10/11 03:33:01;;;;;;;;;;;;;;;;;;5036513;28;5268;-57
2023/10/11 03:35:27;;;;;;;;;;;;;;;;;;5032515;28;5042;-57
2023/10/11 03:37:58;;;;;;;;;;;;;;;;;;5027619;28;2341;-57
2023/10/11 03:43:16;;;;;;;;;;;;;;;;;;4995511;28;5216;-57
2023/10/11 03:45:49;;;;;;;;;;;;;;;;;;5002120;28;5206;-57
2023/10/11 03:48:15;;;;;;;;;;;;;;;;;;5028352;28;5107;-57
2023/10/11 03:50:47;;;;;;;;;;;;;;;;;;5026312;28;5080;-57
2023/10/11 03:53:13;;;;;;;;;;;;;;;;;;5019782;28;3344;-57
2023/10/11 03:55:46;;;;;;;;;;;;;;;;;;5025912;28;4589;-57
2023/10/11 03:58:37;;;;;;;;;;;;;;;;;;5017206;28;5079;-58
2023/10/11 04:01:46;;;;;;;;;;;;;;;;;;5025061;28;5135;-57
2023/10/11 04:03:49;;;;;;;;;;;;;;;;;;5021902;28;5045;-58
2023/10/11 04:06:14;;;;;;;;;;;;;;;;;;5032225;28;4418;-57
2023/10/11 04:08:43;;;;;;;;;;;;;;;;;;5024317;28;4463;-57
2023/10/11 04:11:16;;;;;;;;;;;;;;;;;;5016295;28;1446;-57
2023/10/11 04:13:45;;;;;;;;;;;;;;;;;;5028135;28;5120;-58
2023/10/11 04:16:11;;;;;;;;;;;;;;;;;;5032375;28;4547;-57
2023/10/11 04:18:39;;;;;;;;;;;;;;;;;;5016990;28;4673;-57
2023/10/11 04:23:36;;;;;;;;;;;;;;;;;;5028187;28;4525;-57
2023/10/11 04:26:08;;;;;;;;;;;;;;;;;;5013470;28;1553;-56
2023/10/11 04:28:34;;;;;;;;;;;;;;;;;;5019793;28;4625;-57
2023/10/11 04:31:28;;;;;;;;;;;;;;;;;;5016994;28;4496;-58
2023/10/11 04:33:54;;;;;;;;;;;;;;;;;;5022540;28;5053;-57
2023/10/11 04:36:20;;;;;;;;;;;;;;;;;;5022133;28;4760;-57
2023/10/11 04:38:49;;;;;;;;;;;;;;;;;;5025378;28;5103;-54
2023/10/11 04:41:16;;;;;;;;;;;;;;;;;;5012944;28;3442;-55
2023/10/11 04:43:50;;;;;;;;;;;;;;;;;;5026662;28;4510;-55
2023/10/11 04:46:15;;;;;;;;;;;;;;;;;;5018642;28;5143;-55
2023/10/11 04:48:41;;;;;;;;;;;;;;;;;;5019724;28;5008;-57
2023/10/11 04:51:21;;;;;;;;;;;;;;;;;;5014899;28;5139;-56
2023/10/11 04:59:08;;;;;;;;;;;;;;;;;;5019406;28;3269;-58
2023/10/11 05:04:14;;;;;;;;;;;;;;;;;;5017136;28;5044;-57
2023/10/11 05:06:40;;;;;;;;;;;;;;;;;;5021216;28;5113;-57
2023/10/11 05:09:56;;;;;;;;;;;;;;;;;;5018887;28;5019;-57
2023/10/11 05:19:44;;;;;;;;;;;;;;;;;;5042379;28;4998;-57
2023/10/11 05:22:16;;;;;;;;;;;;;;;;;;5016874;28;5014;-57
2023/10/11 05:25:12;;;;;;;;;;;;;;;;;;5034797;28;5031;-56
2023/10/11 05:32:32;;;;;;;;;;;;;;;;;;5029203;28;4599;-55
2023/10/11 05:51:32;;;;;;;;;;;;;;;;;;5024632;28;4978;-56
2023/10/11 05:53:59;;;;;;;;;;;;;;;;;;5026086;28;5022;-56
2023/10/11 05:56:24;;;;;;;;;;;;;;;;;;5025889;28;5065;-57
2023/10/11 05:58:50;;;;;;;;;;;;;;;;;;5020424;28;1307;-57
2023/10/11 06:01:21;;;;;;;;;;;;;;;;;;5023508;28;4840;-56
2023/10/11 06:03:48;;;;;;;;;;;;;;;;;;5023605;28;5143;-56
2023/10/11 06:06:38;;;;;;;;;;;;;;;;;;5027569;28;5003;-55
2023/10/11 06:09:05;;;;;;;;;;;;;;;;;;5026510;28;5057;-58
2023/10/11 06:11:36;;;;;;;;;;;;;;;;;;5034616;28;5265;-56
2023/10/11 06:14:05;;;;;;;;;;;;;;;;;;5023790;28;1097;-56
2023/10/11 06:16:37;;;;;;;;;;;;;;;;;;5038556;28;4947;-56
2023/10/11 06:19:16;;;;;;;;;;;;;;;;;;5024317;28;5078;-57
2023/10/11 06:21:56;;;;;;;;;;;;;;;;;;5025105;28;5069;-56
2023/10/11 06:24:22;;;;;;;;;;;;;;;;;;5022118;28;4466;-56
2023/10/11 06:29:16;;;;;;;;;;;;;;;;;;5011232;28;3347;-56
2023/10/11 06:31:43;;;;;;;;;;;;;;;;;;5019426;28;4550;-56
2023/10/11 06:34:25;;;;;;;;;;;;;;;;;;5032391;28;5362;-56
2023/10/11 06:36:51;;;;;;;;;;;;;;;;;;5027868;28;4894;-60
2023/10/11 06:42:12;;;;;;;;;;;;;;;;;;5027844;28;4971;-57
2023/10/11 06:44:38;;;;;;;;;;;;;;;;;;5031772;28;4899;-56
2023/10/11 06:47:03;;;;;;;;;;;;;;;;;;5027934;28;1235;-58
2023/10/11 06:49:54;;;;;;;;;;;;;;;;;;5026308;28;4880;-56
2023/10/11 06:52:19;;;;;;;;;;;;;;;;;;5019039;28;5094;-59
2023/10/11 06:55:07;;;;;;;;;;;;;;;;;;5027500;28;5054;-56
2023/10/11 06:57:32;;;;;;;;;;;;;;;;;;5024522;28;4985;-56
2023/10/11 06:59:58;;;;;;;;;;;;;;;;;;5029632;28;5087;-56
2023/10/11 07:02:32;;;;;;;;;;;;;;;;;;5017524;28;5326;-56
2023/10/11 07:05:05;;;;;;;;;;;;;;;;;;5018143;28;3238;-57
2023/10/11 07:07:32;;;;;;;;;;;;;;;;;;5025361;28;5071;-56
2023/10/11 07:09:57;;;;;;;;;;;;;;;;;;5017340;28;4949;-56
2023/10/11 07:12:46;;;;;;;;;;;;;;;;;;5041582;28;5074;-56
2023/10/11 07:15:09;;;;;;;;;;;;;;;;;;5020739;28;5988;-56
2023/10/11 07:17:38;;;;;;;;;;;;;;;;;;5028904;28;5555;-57
2023/10/11 07:20:44;;;;;;;;;;;;;;;;;;5043269;28;1256;-59
2023/10/11 07:22:49;;;;;;;;;;;;;;;;;;5008145;28;4650;-57
2023/10/11 07:25:36;;;;;;;;;;;;;;;;;;5024229;28;4445;-56
2023/10/11 07:28:03;;;;;;;;;;;;;;;;;;5027529;28;4946;-56
2023/10/11 07:30:37;;;;;;;;;;;;;;;;;;5014807;28;5025;-56
2023/10/11 07:33:04;;;;;;;;;;;;;;;;;;5025992;28;5067;-56
2023/10/11 07:35:29;;;;;;;;;;;;;;;;;;5032767;28;5153;-56
2023/10/11 07:37:56;;;;;;;;;;;;;;;;;;5023646;28;1283;-57
2023/10/11 07:40:33;;;;;;;;;;;;;;;;;;5034338;28;5033;-57
2023/10/11 07:42:58;;;;;;;;;;;;;;;;;;5023931;28;4679;-56
2023/10/11 07:45:26;;;;;;;;;;;;;;;;;;5034938;28;5043;-57
2023/10/11 07:47:52;;;;;;;;;;;;;;;;;;5030627;28;5022;-56
2023/10/11 07:50:22;;;;;;;;;;;;;;;;;;5034144;28;5033;-57
2023/10/11 07:52:47;;;;;;;;;;;;;;;;;;5026709;28;3330;-57
2023/10/11 07:55:13;;;;;;;;;;;;;;;;;;5022607;28;5160;-56
2023/10/11 07:57:44;;;;;;;;;;;;;;;;;;5014668;28;4678;-54
2023/10/11 08:00:17;;;;;;;;;;;;;;;;;;5030257;28;5123;-53
2023/10/11 08:02:42;;;;;;;;;;;;;;;;;;5028695;28;5116;-53
2023/10/11 08:05:12;;;;;;;;;;;;;;;;;;5024068;28;1263;-52
2023/10/11 08:07:38;;;;;;;;;;;;;;;;;;5030369;28;4948;-59
2023/10/11 08:10:29;;;;;;;;;;;;;;;;;;5025546;28;4504;-59
2023/10/11 08:12:48;;;;;;;;;;;;;;;;;;5024932;28;5272;-58
2023/10/11 08:15:15;;;;;;;;;;;;;;;;;;5045153;28;5185;-59
2023/10/11 08:17:41;;;;;;;;;;;;;;;;;;5034332;28;4944;-59
2023/10/11 08:20:09;;;;;;;;;;;;;;;;;;5027453;28;1137;-59
2023/10/11 08:22:35;;;;;;;;;;;;;;;;;;5026380;28;5211;-58
2023/10/11 08:25:01;;;;;;;;;;;;;;;;;;5031873;28;5108;-59
2023/10/11 08:27:29;;;;;;;;;;;;;;;;;;5030871;28;5126;-59
2023/10/11 08:30:05;;;;;;;;;;;;;;;;;;5033598;28;5295;-59
2023/10/11 08:32:37;;;;;;;;;;;;;;;;;;5022079;28;5064;-58
2023/10/11 08:35:04;;;;;;;;;;;;;;;;;;5027302;28;1295;-57
2023/10/11 08:37:32;;;;;;;;;;;;;;;;;;5035344;28;4950;-57
2023/10/11 08:39:57;;;;;;;;;;;;;;;;;;5018174;28;5024;-57
2023/10/11 08:42:26;;;;;;;;;;;;;;;;;;5030083;28;4643;-56
2023/10/11 08:44:54;;;;;;;;;;;;;;;;;;5031913;28;5019;-57
2023/10/11 08:47:19;;;;;;;;;;;;;;;;;;5051769;28;5040;-58
2023/10/11 08:49:51;;;;;;;;;;;;;;;;;;5033833;28;1376;-57
2023/10/11 08:52:28;;;;;;;;;;;;;;;;;;5038194;28;4552;-58
2023/10/11 08:54:53;;;;;;;;;;;;;;;;;;5015016;28;5141;-58
2023/10/11 08:57:23;;;;;;;;;;;;;;;;;;5008782;28;4517;-58
2023/10/11 08:59:51;;;;;;;;;;;;;;;;;;4996310;28;5146;-57
2023/10/11 09:02:17;;;;;;;;;;;;;;;;;;5007023;28;4511;-56
2023/10/11 09:04:59;;;;;;;;;;;;;;;;;;5012380;28;1085;-58
2023/10/11 09:07:44;;;;;;;;;;;;;;;;;;4997101;28;4499;-57
2023/10/11 09:10:26;;;;;;;;;;;;;;;;;;5012526;28;4999;-57
2023/10/11 09:12:56;;;;;;;;;;;;;;;;;;5004249;28;5079;-57
2023/10/11 09:15:44;;;;;;;;;;;;;;;;;;4997613;28;4850;-57
2023/10/11 09:18:12;;;;;;;;;;;;;;;;;;5002030;28;5333;-58
2023/10/11 09:20:40;;;;;;;;;;;;;;;;;;5003003;28;5075;-58
2023/10/11 09:23:05;;;;;;;;;;;;;;;;;;4996067;28;3328;-59
2023/10/11 09:25:34;;;;;;;;;;;;;;;;;;5000314;28;5012;-58
2023/10/11 09:27:59;;;;;;;;;;;;;;;;;;5003328;28;4480;-57
2023/10/11 09:30:27;;;;;;;;;;;;;;;;;;5005760;28;5539;-58
2023/10/11 09:32:52;;;;;;;;;;;;;;;;;;4995932;28;4906;-58
2023/10/11 09:35:23;;;;;;;;;;;;;;;;;;5004873;28;5098;-57
2023/10/11 09:37:49;;;;;;;;;;;;;;;;;;5002501;28;1454;-58
2023/10/11 09:40:16;;;;;;;;;;;;;;;;;;4998282;28;4991;-58
2023/10/11 09:42:43;;;;;;;;;;;;;;;;;;4998767;28;4957;-63
2023/10/11 09:45:08;;;;;;;;;;;;;;;;;;4979011;28;5775;-62
2023/10/11 09:47:34;;;;;;;;;;;;;;;;;;4985888;28;5170;-60
2023/10/11 09:50:00;;;;;;;;;;;;;;;;;;4990499;28;3276;-60
2023/10/11 09:52:25;;;;;;;;;;;;;;;;;;4999560;28;5048;-63
2023/10/11 09:54:50;;;;;;;;;;;;;;;;;;4977679;28;5142;-62
2023/10/11 09:57:29;;;;;;;;;;;;;;;;;;4993526;28;4530;-63
2023/10/11 10:00:05;;;;;;;;;;;;;;;;;;4993744;28;4570;-61
2023/10/11 10:02:34;;;;;;;;;;;;;;;;;;5010027;28;5159;-60
2023/10/11 10:05:04;;;;;;;;;;;;;;;;;;5023052;28;3107;-59
2023/10/11 10:07:42;;;;;;;;;;;;;;;;;;5029288;28;5084;-61
2023/10/11 10:10:08;;;;;;;;;;;;;;;;;;5023021;28;4993;-60
2023/10/11 10:12:34;;;;;;;;;;;;;;;;;;5002190;28;5261;-65
2023/10/11 10:15:32;;;;;;;;;;;;;;;;;;5026056;28;5926;-60
2023/10/11 10:17:56;;;;;;;;;;;;;;;;;;5017940;28;5083;-60
2023/10/11 10:20:43;;;;;;;;;;;;;;;;;;5020102;28;5052;-56
2023/10/11 10:23:14;;;;;;;;;;;;;;;;;;5016741;28;1985;-57
2023/10/11 10:25:45;;;;;;;;;;;;;;;;;;5023446;28;5058;-56
2023/10/11 10:28:29;;;;;;;;;;;;;;;;;;5014771;28;4916;-57
2023/10/11 10:31:17;;;;;;;;;;;;;;;;;;5020907;28;4826;-56
2023/10/11 10:33:42;;;;;;;;;;;;;;;;;;5024388;28;4950;-57
2023/10/11 10:36:17;;;;;;;;;;;;;;;;;;5028691;28;5009;-55
2023/10/11 10:39:00;;;;;;;;;;;;;;;;;;5014036;28;4509;-57
2023/10/11 10:41:32;;;;;;;;;;;;;;;;;;5015631;28;4974;-58
2023/10/11 10:44:19;;;;;;;;;;;;;;;;;;5011743;28;3440;-56
2023/10/11 10:46:50;;;;;;;;;;;;;;;;;;5016723;28;4752;-59
2023/10/11 10:49:17;;;;;;;;;;;;;;;;;;5018282;28;5072;-56
2023/10/11 10:51:47;;;;;;;;;;;;;;;;;;5023405;28;5111;-56
2023/10/11 10:54:17;;;;;;;;;;;;;;;;;;5019339;28;5054;-57
2023/10/11 10:56:48;;;;;;;;;;;;;;;;;;5020553;28;5048;-57
2023/10/11 10:59:14;;;;;;;;;;;;;;;;;;4991867;28;1153;-57
2023/10/11 11:01:44;;;;;;;;;;;;;;;;;;5021930;28;4663;-54
2023/10/11 11:04:10;;;;;;;;;;;;;;;;;;5013168;28;4726;-53
2023/10/11 11:06:38;;;;;;;;;;;;;;;;;;5000753;28;4977;-51
2023/10/11 11:09:04;;;;;;;;;;;;;;;;;;5035397;28;5043;-55
2023/10/11 11:11:34;;;;;;;;;;;;;;;;;;5032022;28;5073;-53
2023/10/11 11:14:07;;;;;;;;;;;;;;;;;;5024156;28;1214;-51
2023/10/11 11:16:33;;;;;;;;;;;;;;;;;;5023830;28;5326;-55
2023/10/11 11:19:00;;;;;;;;;;;;;;;;;;5031525;28;5040;-55
2023/10/11 11:21:29;;;;;;;;;;;;;;;;;;5019935;28;5054;-53
2023/10/11 11:23:54;;;;;;;;;;;;;;;;;;5028051;28;4917;-52
2023/10/11 11:26:23;;;;;;;;;;;;;;;;;;5034332;28;4590;-59
2023/10/11 11:28:49;;;;;;;;;;;;;;;;;;5019010;28;3617;-54
2023/10/11 11:31:30;;;;;;;;;;;;;;;;;;5030110;28;5108;-57
2023/10/11 11:34:12;;;;;;;;;;;;;;;;;;5028746;28;4458;-56
2023/10/11 11:36:40;;;;;;;;;;;;;;;;;;5029986;28;4544;-51
2023/10/11 11:41:58;;;;;;;;;;;;;;;;;;5028090;28;4811;-53
2023/10/11 11:44:24;;;;;;;;;;;;;;;;;;5032441;28;4983;-54
2023/10/11 11:46:49;;;;;;;;;;;;;;;;;;5029517;28;3306;-54
2023/10/11 11:49:16;;;;;;;;;;;;;;;;;;5023781;28;4913;-53
2023/10/11 11:51:41;;;;;;;;;;;;;;;;;;5024097;28;4467;-50
2023/10/11 11:54:09;;;;;;;;;;;;;;;;;;5018726;28;4930;-58
2023/10/11 11:56:34;;;;;;;;;;;;;;;;;;5021686;28;5247;-53
2023/10/11 11:59:00;;;;;;;;;;;;;;;;;;5025470;28;2386;-52
2023/10/11 12:01:26;;;;;;;;;;;;;;;;;;5022496;28;4447;-54
2023/10/11 12:03:54;;;;;;;;;;;;;;;;;;5018270;28;5113;-50
2023/10/11 12:06:23;;;;;;;;;;;;;;;;;;5022691;28;5115;-58
2023/10/11 12:08:57;;;;;;;;;;;;;;;;;;5036488;28;5079;-50
2023/10/11 12:11:23;;;;;;;;;;;;;;;;;;5018664;28;5083;-51
2023/10/11 12:13:48;;;;;;;;;;;;;;;;;;5020238;28;1147;-50
2023/10/11 12:16:14;;;;;;;;;;;;;;;;;;5018847;28;5272;-49
2023/10/11 12:18:39;;;;;;;;;;;;;;;;;;5022133;28;5030;-52
2023/10/11 12:21:10;;;;;;;;;;;;;;;;;;5017198;28;5038;-57
2023/10/11 12:23:36;;;;;;;;;;;;;;;;;;5014895;28;5125;-55
2023/10/11 12:26:04;;;;;;;;;;;;;;;;;;5018511;28;3892;-49
2023/10/11 12:28:29;;;;;;;;;;;;;;;;;;5015478;28;5030;-49
2023/10/11 12:30:54;;;;;;;;;;;;;;;;;;5017855;28;5040;-52
2023/10/11 12:33:19;;;;;;;;;;;;;;;;;;5021277;28;5042;-53
2023/10/11 12:35:45;;;;;;;;;;;;;;;;;;5021433;28;4448;-54
2023/10/11 12:38:13;;;;;;;;;;;;;;;;;;5021831;28;1140;-54
2023/10/11 12:40:39;;;;;;;;;;;;;;;;;;5021248;28;4605;-54
2023/10/11 12:43:07;;;;;;;;;;;;;;;;;;5001700;28;5046;-52
2023/10/11 12:45:33;;;;;;;;;;;;;;;;;;5017296;28;4870;-52
2023/10/11 12:47:58;;;;;;;;;;;;;;;;;;5015295;28;4984;-52
2023/10/11 12:50:23;;;;;;;;;;;;;;;;;;5019011;28;5136;-53
2023/10/11 12:52:52;;;;;;;;;;;;;;;;;;5017233;28;1294;-52
2023/10/11 12:55:20;;;;;;;;;;;;;;;;;;5018455;28;5021;-50
2023/10/11 12:57:45;;;;;;;;;;;;;;;;;;5019359;28;4534;-52
2023/10/11 13:00:31;;;;;;;;;;;;;;;;;;5015808;28;5119;-54
2023/10/11 13:03:05;;;;;;;;;;;;;;;;;;5005371;28;5121;-53
2023/10/11 13:05:31;;;;;;;;;;;;;;;;;;5014074;28;5175;-52
2023/10/11 13:07:57;;;;;;;;;;;;;;;;;;5016257;28;3681;-58
2023/10/11 13:10:23;;;;;;;;;;;;;;;;;;5014716;28;5038;-54
2023/10/11 13:12:50;;;;;;;;;;;;;;;;;;5014490;28;5118;-54
2023/10/11 13:15:18;;;;;;;;;;;;;;;;;;5010517;28;5055;-55
2023/10/11 13:17:44;;;;;;;;;;;;;;;;;;5009931;28;5181;-56
2023/10/11 13:20:18;;;;;;;;;;;;;;;;;;5014257;28;3355;-62
2023/10/11 13:22:43;;;;;;;;;;;;;;;;;;5015563;28;5048;-61
2023/10/11 13:25:22;;;;;;;;;;;;;;;;;;5014312;28;5154;-63
2023/10/11 13:27:48;;;;;;;;;;;;;;;;;;5014119;28;4719;-65
2023/10/11 13:30:14;;;;;;;;;;;;;;;;;;5013293;28;4789;-66
2023/10/11 13:32:40;;;;;;;;;;;;;;;;;;4994884;28;5161;-61
2023/10/11 13:35:05;;;;;;;;;;;;;;;;;;5018684;28;3426;-59
2023/10/11 13:40:33;;;;;;;;;;;;;;;;;;5035061;28;5028;-58
2023/10/11 13:46:05;;;;;;;;;;;;;;;;;;5034761;28;5017;-58
2023/10/11 13:48:37;;;;;;;;;;;;;;;;;;5017270;28;5027;-58
2023/10/11 13:51:04;;;;;;;;;;;;;;;;;;5000871;28;4854;-58
2023/10/11 13:53:30;;;;;;;;;;;;;;;;;;5014983;28;4851;-58
2023/10/11 13:58:59;;;;;;;;;;;;;;;;;;5035056;28;4569;-68
2023/10/11 14:04:13;;;;;;;;;;;;;;;;;;5053809;28;5057;-57
2023/10/11 14:09:45;;;;;;;;;;;;;;;;;;5054204;28;4970;-57
2023/10/11 14:15:21;;;;;;;;;;;;;;;;;;5054476;28;4451;-62
2023/10/11 14:20:55;;;;;;;;;;;;;;;;;;5053891;28;4424;-62
2023/10/11 14:23:20;;;;;;;;;;;;;;;;;;5053616;28;5021;-63
2023/10/11 14:25:46;;;;;;;;;;;;;;;;;;5054685;28;1390;-60
2023/10/11 14:31:16;;;;;;;;;;;;;;;;;;5055577;28;4835;-77
2023/10/11 14:33:41;;;;;;;;;;;;;;;;;;5054536;28;4912;-74
2023/10/11 14:36:07;;;;;;;;;;;;;;;;;;5036991;28;4632;-72
2023/10/11 14:38:33;;;;;;;;;;;;;;;;;;5054382;28;4896;-58
2023/10/11 14:44:01;;;;;;;;;;;;;;;;;;5046207;28;4716;-59
2023/10/11 14:46:26;;;;;;;;;;;;;;;;;;5037652;28;4806;-60
2023/10/11 14:48:51;;;;;;;;;;;;;;;;;;5036703;28;5125;-58
2023/10/11 14:51:17;;;;;;;;;;;;;;;;;;5038074;28;5073;-59
2023/10/11 14:56:46;;;;;;;;;;;;;;;;;;5036664;28;4436;-58
2023/10/11 14:59:12;;;;;;;;;;;;;;;;;;5036592;28;1116;-58
2023/10/11 15:04:40;;;;;;;;;;;;;;;;;;5037562;28;5118;-58
2023/10/11 15:07:06;;;;;;;;;;;;;;;;;;5037335;28;4952;-59
2023/10/11 15:09:33;;;;;;;;;;;;;;;;;;5037113;28;4840;-59
2023/10/11 15:11:58;;;;;;;;;;;;;;;;;;5035980;28;5053;-58
2023/10/11 15:20:31;;;;;;;;;;;;;;;;;;5036907;28;5057;-55
2023/10/11 15:22:56;;;;;;;;;;;;;;;;;;5037617;28;1972;-56
2023/10/11 15:25:22;;;;;;;;;;;;;;;;;;5031497;28;4417;-57
2023/10/11 15:27:48;;;;;;;;;;;;;;;;;;5041699;28;5017;-55
2023/10/11 15:30:13;;;;;;;;;;;;;;;;;;5051502;28;4422;-56
2023/10/11 15:32:39;;;;;;;;;;;;;;;;;;5033117;28;5021;-55
2023/10/11 15:35:07;;;;;;;;;;;;;;;;;;5037349;28;1022;-55
2023/10/11 15:37:32;;;;;;;;;;;;;;;;;;5036929;28;5208;-56
2023/10/11 15:39:57;;;;;;;;;;;;;;;;;;5031045;28;5026;-56
2023/10/11 15:42:23;;;;;;;;;;;;;;;;;;5033483;28;4975;-56
2023/10/11 15:44:48;;;;;;;;;;;;;;;;;;5034316;28;5071;-57
2023/10/11 15:47:14;;;;;;;;;;;;;;;;;;5032254;28;1097;-57
2023/10/11 15:49:40;;;;;;;;;;;;;;;;;;5019957;28;4411;-56
2023/10/11 15:52:05;;;;;;;;;;;;;;;;;;5033388;28;5070;-55
2023/10/11 15:54:31;;;;;;;;;;;;;;;;;;5022872;28;5037;-56
2023/10/11 15:56:57;;;;;;;;;;;;;;;;;;5031026;28;5040;-58
2023/10/11 15:59:22;;;;;;;;;;;;;;;;;;5032812;28;4513;-56
2023/10/11 16:04:40;;;;;;;;;;;;;;;;;;5013918;28;5002;-55
2023/10/11 16:07:05;;;;;;;;;;;;;;;;;;5014872;28;4645;-55
2023/10/11 16:09:40;;;;;;;;;;;;;;;;;;5031140;28;5031;-56
2023/10/11 16:12:05;;;;;;;;;;;;;;;;;;5034641;28;5203;-55
2023/10/11 16:14:31;;;;;;;;;;;;;;;;;;5036221;28;4642;-56
2023/10/11 16:16:56;;;;;;;;;;;;;;;;;;5029723;28;1130;-55
2023/10/11 16:19:51;;;;;;;;;;;;;;;;;;5031698;28;5087;-55
2023/10/11 16:31:34;;;;;;;;;;;;;;;;;;5034789;28;5104;-55
2023/10/11 16:34:00;;;;;;;;;;;;;;;;;;5015349;28;5066;-56
2023/10/11 16:36:25;;;;;;;;;;;;;;;;;;5015997;28;5007;-55
2023/10/11 16:38:54;;;;;;;;;;;;;;;;;;5021529;28;5179;-55
2023/10/11 16:41:21;;;;;;;;;;;;;;;;;;5033243;28;4457;-55
2023/10/11 16:46:49;;;;;;;;;;;;;;;;;;5036257;28;4775;-56
2023/10/11 16:49:16;;;;;;;;;;;;;;;;;;5031907;28;5091;-55
2023/10/11 16:51:54;;;;;;;;;;;;;;;;;;5041248;28;5000;-54
2023/10/11 16:57:22;;;;;;;;;;;;;;;;;;5035436;28;4927;-55
2023/10/11 16:59:58;;;;;;;;;;;;;;;;;;5035380;28;4430;-55
2023/10/11 17:02:26;;;;;;;;;;;;;;;;;;5027688;28;5072;-55
2023/10/11 17:04:51;;;;;;;;;;;;;;;;;;5013685;28;1926;-55
2023/10/11 17:10:33;;;;;;;;;;;;;;;;;;5033562;28;4546;-55
2023/10/11 17:16:01;;;;;;;;;;;;;;;;;;5013610;28;5079;-58
2023/10/11 17:18:29;;;;;;;;;;;;;;;;;;5033856;28;5199;-56
2023/10/11 17:20:57;;;;;;;;;;;;;;;;;;5035158;28;4843;-56
2023/10/11 17:23:25;;;;;;;;;;;;;;;;;;5032327;28;5081;-57
2023/10/11 17:25:52;;;;;;;;;;;;;;;;;;5034079;28;1098;-55
2023/10/11 17:28:17;;;;;;;;;;;;;;;;;;5033286;28;4981;-56
2023/10/11 17:30:45;;;;;;;;;;;;;;;;;;5023412;28;5001;-55
2023/10/11 17:33:11;;;;;;;;;;;;;;;;;;5031211;28;5045;-56
2023/10/11 17:35:37;;;;;;;;;;;;;;;;;;5034627;28;4572;-56
2023/10/11 17:38:03;;;;;;;;;;;;;;;;;;5033753;28;1335;-55
2023/10/11 17:40:28;;;;;;;;;;;;;;;;;;5030152;28;5105;-56
2023/10/11 17:42:58;;;;;;;;;;;;;;;;;;5034442;28;4433;-58
2023/10/11 17:45:24;;;;;;;;;;;;;;;;;;5034720;28;4698;-58
2023/10/11 17:47:52;;;;;;;;;;;;;;;;;;5032824;28;5089;-58
2023/10/11 17:53:21;;;;;;;;;;;;;;;;;;5034305;28;4975;-58
2023/10/11 17:58:48;;;;;;;;;;;;;;;;;;5030568;28;4577;-58
2023/10/11 18:01:16;;;;;;;;;;;;;;;;;;5034171;28;4972;-60
2023/10/11 18:03:41;;;;;;;;;;;;;;;;;;5034896;28;5015;-60
2023/10/11 18:09:09;;;;;;;;;;;;;;;;;;5034007;28;5103;-60
2023/10/11 18:11:34;;;;;;;;;;;;;;;;;;5033631;28;4947;-61
2023/10/11 18:14:00;;;;;;;;;;;;;;;;;;5034517;28;1163;-60
2023/10/11 18:16:29;;;;;;;;;;;;;;;;;;5033804;28;4573;-62
2023/10/11 18:24:59;;;;;;;;;;;;;;;;;;5030140;28;4794;-61
2023/10/11 18:27:25;;;;;;;;;;;;;;;;;;5033923;28;4682;-62
2023/10/11 18:29:50;;;;;;;;;;;;;;;;;;5034356;28;5114;-62
2023/10/11 18:32:18;;;;;;;;;;;;;;;;;;5034443;28;1261;-62
2023/10/11 18:35:16;;;;;;;;;;;;;;;;;;5033804;28;5940;-61
2023/10/11 18:37:45;;;;;;;;;;;;;;;;;;5028337;28;4672;-62
2023/10/11 18:46:16;;;;;;;;;;;;;;;;;;5033902;28;4597;-61
2023/10/11 18:48:41;;;;;;;;;;;;;;;;;;5028301;28;5022;-65
2023/10/11 18:51:07;;;;;;;;;;;;;;;;;;5032656;28;5028;-61
2023/10/11 18:53:33;;;;;;;;;;;;;;;;;;5020951;28;5072;-62
2023/10/11 18:56:04;;;;;;;;;;;;;;;;;;5035518;28;2701;-63
2023/10/11 18:58:31;;;;;;;;;;;;;;;;;;5003138;28;5151;-64
2023/10/11 19:00:57;;;;;;;;;;;;;;;;;;5022765;28;4670;-65
2023/10/11 19:03:22;;;;;;;;;;;;;;;;;;5033936;28;5120;-59
2023/10/11 19:05:47;;;;;;;;;;;;;;;;;;5033920;28;4993;-70
2023/10/11 19:11:16;;;;;;;;;;;;;;;;;;5034038;28;5016;-69
2023/10/11 19:14:16;;;;;;;;;;;;;;;;;;5034424;28;1081;-68
2023/10/11 19:19:45;;;;;;;;;;;;;;;;;;5029102;28;4730;-71
2023/10/11 19:25:20;;;;;;;;;;;;;;;;;;5035320;28;4679;-76
2023/10/11 19:27:45;;;;;;;;;;;;;;;;;;5034525;28;4944;-70
2023/10/11 19:30:16;;;;;;;;;;;;;;;;;;5037730;28;4782;-69
2023/10/11 19:32:41;;;;;;;;;;;;;;;;;;5038131;28;4976;-61
2023/10/11 19:38:09;;;;;;;;;;;;;;;;;;5037951;28;4526;-62
2023/10/11 19:40:38;;;;;;;;;;;;;;;;;;5037082;28;4441;-62
2023/10/11 19:43:03;;;;;;;;;;;;;;;;;;5036992;28;5160;-64